sensor_id;sensor_type;location;lat;lon;timestamp;P1;durP1;ratioP1;P2;durP2;ratioP2
24813;SDS011;12904;50.088;11.414;2023-07-13T00:02:18;1.42;;;1.23;;
24813;SDS011;12904;50.088;11.414;2023-07-13T00:04:44;2.10;;;1.10;;
24813;SDS011;12904;50.088;11.414;2023-07-13T00:07:10;2.78;;;1.40;;
24813;SDS011;12904;50.088;11.414;2023-07-13T00:09:35;2.30;;;1.15;;
24813;SDS011;12904;50.088;11.414;2023-07-13T00:12:01;3.35;;;1.30;;
24813;SDS011;12904;50.088;11.414;2023-07-13T00:14:27;2.00;;;1.10;;
24813;SDS011;12904;50.088;11.414;2023-07-13T00:16:54;1.63;;;1.20;;
24813;SDS011;12904;50.088;11.414;2023-07-13T00:19:20;1.88;;;1.27;;
24813;SDS011;12904;50.088;11.414;2023-07-13T00:21:46;2.53;;;1.38;;
24813;SDS011;12904;50.088;11.414;2023-07-13T00:24:13;2.60;;;1.27;;
24813;SDS011;12904;50.088;11.414;2023-07-13T00:26:40;4.10;;;1.10;;
24813;SDS011;12904;50.088;11.414;2023-07-13T00:29:10;1.15;;;1.05;;
24813;SDS011;12904;50.088;11.414;2023-07-13T00:31:36;1.17;;;0.95;;
24813;SDS011;12904;50.088;11.414;2023-07-13T00:34:02;3.10;;;1.20;;
24813;SDS011;12904;50.088;11.414;2023-07-13T00:36:29;2.40;;;1.48;;
24813;SDS011;12904;50.088;11.414;2023-07-13T00:38:55;3.42;;;1.20;;
24813;SDS011;12904;50.088;11.414;2023-07-13T00:41:21;1.77;;;1.20;;
24813;SDS011;12904;50.088;11.414;2023-07-13T00:43:47;2.25;;;1.25;;
24813;SDS011;12904;50.088;11.414;2023-07-13T00:46:15;1.90;;;0.98;;
24813;SDS011;12904;50.088;11.414;2023-07-13T00:48:49;2.38;;;1.20;;
24813;SDS011;12904;50.088;11.414;2023-07-13T00:51:17;3.50;;;1.48;;
24813;SDS011;12904;50.088;11.414;2023-07-13T00:56:12;1.30;;;1.20;;
24813;SDS011;12904;50.088;11.414;2023-07-13T00:58:38;4.68;;;1.90;;
24813;SDS011;12904;50.088;11.414;2023-07-13T01:01:04;2.78;;;1.23;;
24813;SDS011;12904;50.088;11.414;2023-07-13T01:03:29;2.70;;;1.38;;
24813;SDS011;12904;50.088;11.414;2023-07-13T01:05:55;1.23;;;1.10;;
24813;SDS011;12904;50.088;11.414;2023-07-13T01:08:21;2.20;;;1.40;;
24813;SDS011;12904;50.088;11.414;2023-07-13T01:10:50;7.20;;;1.38;;
24813;SDS011;12904;50.088;11.414;2023-07-13T01:13:20;2.45;;;1.20;;
24813;SDS011;12904;50.088;11.414;2023-07-13T01:15:47;3.92;;;1.45;;
24813;SDS011;12904;50.088;11.414;2023-07-13T01:23:21;2.88;;;1.48;;
24813;SDS011;12904;50.088;11.414;2023-07-13T01:25:49;2.97;;;1.63;;
24813;SDS011;12904;50.088;11.414;2023-07-13T01:28:15;3.65;;;1.40;;
24813;SDS011;12904;50.088;11.414;2023-07-13T01:30:42;2.03;;;1.40;;
24813;SDS011;12904;50.088;11.414;2023-07-13T01:33:10;1.80;;;0.90;;
24813;SDS011;12904;50.088;11.414;2023-07-13T01:35:41;1.50;;;1.40;;
24813;SDS011;12904;50.088;11.414;2023-07-13T01:38:08;5.20;;;1.55;;
24813;SDS011;12904;50.088;11.414;2023-07-13T01:40:35;1.92;;;1.42;;
24813;SDS011;12904;50.088;11.414;2023-07-13T01:43:02;2.95;;;1.40;;
24813;SDS011;12904;50.088;11.414;2023-07-13T01:45:29;3.03;;;1.48;;
24813;SDS011;12904;50.088;11.414;2023-07-13T01:47:54;5.28;;;1.67;;
24813;SDS011;12904;50.088;11.414;2023-07-13T01:50:20;3.40;;;1.42;;
24813;SDS011;12904;50.088;11.414;2023-07-13T01:52:46;1.83;;;1.20;;
24813;SDS011;12904;50.088;11.414;2023-07-13T01:55:12;2.05;;;1.50;;
24813;SDS011;12904;50.088;11.414;2023-07-13T01:57:38;1.65;;;1.30;;
24813;SDS011;12904;50.088;11.414;2023-07-13T02:00:05;2.47;;;1.60;;
24813;SDS011;12904;50.088;11.414;2023-07-13T02:02:32;1.50;;;1.30;;
24813;SDS011;12904;50.088;11.414;2023-07-13T02:04:57;2.03;;;1.63;;
24813;SDS011;12904;50.088;11.414;2023-07-13T02:07:23;2.00;;;1.48;;
24813;SDS011;12904;50.088;11.414;2023-07-13T02:09:49;2.35;;;1.58;;
24813;SDS011;12904;50.088;11.414;2023-07-13T02:12:14;2.22;;;1.52;;
24813;SDS011;12904;50.088;11.414;2023-07-13T02:14:40;2.33;;;1.40;;
24813;SDS011;12904;50.088;11.414;2023-07-13T02:17:06;1.80;;;1.50;;
24813;SDS011;12904;50.088;11.414;2023-07-13T02:19:31;3.13;;;1.50;;
24813;SDS011;12904;50.088;11.414;2023-07-13T02:21:57;3.17;;;1.40;;
24813;SDS011;12904;50.088;11.414;2023-07-13T02:24:23;3.05;;;1.70;;
24813;SDS011;12904;50.088;11.414;2023-07-13T02:26:49;4.97;;;1.73;;
24813;SDS011;12904;50.088;11.414;2023-07-13T02:29:14;1.90;;;1.38;;
24813;SDS011;12904;50.088;11.414;2023-07-13T02:31:40;1.60;;;1.40;;
24813;SDS011;12904;50.088;11.414;2023-07-13T02:34:06;2.47;;;1.50;;
24813;SDS011;12904;50.088;11.414;2023-07-13T02:36:31;2.45;;;1.50;;
24813;SDS011;12904;50.088;11.414;2023-07-13T02:39:00;2.08;;;1.40;;
24813;SDS011;12904;50.088;11.414;2023-07-13T02:41:27;2.38;;;1.50;;
24813;SDS011;12904;50.088;11.414;2023-07-13T02:43:53;5.05;;;1.60;;
24813;SDS011;12904;50.088;11.414;2023-07-13T02:46:19;2.33;;;1.60;;
24813;SDS011;12904;50.088;11.414;2023-07-13T02:48:45;4.38;;;1.80;;
24813;SDS011;12904;50.088;11.414;2023-07-13T02:51:11;1.70;;;1.60;;
24813;SDS011;12904;50.088;11.414;2023-07-13T02:53:37;2.63;;;1.38;;
24813;SDS011;12904;50.088;11.414;2023-07-13T02:56:03;2.85;;;1.70;;
24813;SDS011;12904;50.088;11.414;2023-07-13T02:58:29;1.80;;;1.70;;
24813;SDS011;12904;50.088;11.414;2023-07-13T03:00:55;2.67;;;1.75;;
24813;SDS011;12904;50.088;11.414;2023-07-13T03:03:22;2.55;;;1.63;;
24813;SDS011;12904;50.088;11.414;2023-07-13T03:05:48;4.35;;;2.00;;
24813;SDS011;12904;50.088;11.414;2023-07-13T03:08:25;2.53;;;1.60;;
24813;SDS011;12904;50.088;11.414;2023-07-13T03:11:00;2.70;;;1.70;;
24813;SDS011;12904;50.088;11.414;2023-07-13T03:13:31;2.72;;;1.88;;
24813;SDS011;12904;50.088;11.414;2023-07-13T03:15:56;1.75;;;1.63;;
24813;SDS011;12904;50.088;11.414;2023-07-13T03:18:22;3.75;;;1.60;;
24813;SDS011;12904;50.088;11.414;2023-07-13T03:20:51;2.92;;;2.13;;
24813;SDS011;12904;50.088;11.414;2023-07-13T03:23:17;2.47;;;1.63;;
24813;SDS011;12904;50.088;11.414;2023-07-13T03:25:43;1.75;;;1.30;;
24813;SDS011;12904;50.088;11.414;2023-07-13T03:28:10;3.45;;;2.28;;
24813;SDS011;12904;50.088;11.414;2023-07-13T03:30:36;2.90;;;1.70;;
24813;SDS011;12904;50.088;11.414;2023-07-13T03:33:02;4.45;;;2.05;;
24813;SDS011;12904;50.088;11.414;2023-07-13T03:35:28;3.50;;;1.90;;
24813;SDS011;12904;50.088;11.414;2023-07-13T03:37:54;1.92;;;1.70;;
24813;SDS011;12904;50.088;11.414;2023-07-13T03:40:20;6.20;;;2.30;;
24813;SDS011;12904;50.088;11.414;2023-07-13T03:42:46;2.40;;;2.13;;
24813;SDS011;12904;50.088;11.414;2023-07-13T03:45:11;2.25;;;1.65;;
24813;SDS011;12904;50.088;11.414;2023-07-13T03:47:37;2.25;;;1.73;;
24813;SDS011;12904;50.088;11.414;2023-07-13T03:50:03;2.83;;;2.03;;
24813;SDS011;12904;50.088;11.414;2023-07-13T03:52:29;2.08;;;1.63;;
24813;SDS011;12904;50.088;11.414;2023-07-13T03:54:54;1.90;;;1.55;;
24813;SDS011;12904;50.088;11.414;2023-07-13T03:57:20;1.65;;;1.52;;
24813;SDS011;12904;50.088;11.414;2023-07-13T03:59:45;3.85;;;1.70;;
24813;SDS011;12904;50.088;11.414;2023-07-13T04:02:11;2.65;;;1.90;;
24813;SDS011;12904;50.088;11.414;2023-07-13T04:04:37;1.92;;;1.65;;
24813;SDS011;12904;50.088;11.414;2023-07-13T04:07:05;2.55;;;1.80;;
24813;SDS011;12904;50.088;11.414;2023-07-13T04:09:32;2.28;;;1.60;;
24813;SDS011;12904;50.088;11.414;2023-07-13T04:11:57;4.18;;;1.50;;
24813;SDS011;12904;50.088;11.414;2023-07-13T04:14:23;2.47;;;2.08;;
24813;SDS011;12904;50.088;11.414;2023-07-13T04:16:49;2.17;;;1.73;;
24813;SDS011;12904;50.088;11.414;2023-07-13T04:19:14;3.17;;;1.85;;
24813;SDS011;12904;50.088;11.414;2023-07-13T04:21:40;2.97;;;1.60;;
24813;SDS011;12904;50.088;11.414;2023-07-13T04:24:06;2.47;;;1.75;;
24813;SDS011;12904;50.088;11.414;2023-07-13T04:26:32;2.40;;;2.05;;
24813;SDS011;12904;50.088;11.414;2023-07-13T04:29:00;2.13;;;1.67;;
24813;SDS011;12904;50.088;11.414;2023-07-13T04:31:28;4.32;;;1.98;;
24813;SDS011;12904;50.088;11.414;2023-07-13T04:33:54;2.38;;;2.05;;
24813;SDS011;12904;50.088;11.414;2023-07-13T04:36:20;2.30;;;1.63;;
24813;SDS011;12904;50.088;11.414;2023-07-13T04:38:46;3.30;;;1.63;;
24813;SDS011;12904;50.088;11.414;2023-07-13T04:41:12;1.85;;;1.67;;
24813;SDS011;12904;50.088;11.414;2023-07-13T04:43:39;2.13;;;1.70;;
24813;SDS011;12904;50.088;11.414;2023-07-13T04:46:06;3.53;;;1.90;;
24813;SDS011;12904;50.088;11.414;2023-07-13T04:48:33;3.20;;;1.88;;
24813;SDS011;12904;50.088;11.414;2023-07-13T04:50:59;3.55;;;1.90;;
24813;SDS011;12904;50.088;11.414;2023-07-13T04:53:26;2.65;;;1.73;;
24813;SDS011;12904;50.088;11.414;2023-07-13T04:55:52;5.28;;;2.15;;
24813;SDS011;12904;50.088;11.414;2023-07-13T04:58:18;3.20;;;1.65;;
24813;SDS011;12904;50.088;11.414;2023-07-13T05:00:44;2.38;;;1.50;;
24813;SDS011;12904;50.088;11.414;2023-07-13T05:03:09;2.13;;;1.80;;
24813;SDS011;12904;50.088;11.414;2023-07-13T05:05:35;2.28;;;1.67;;
24813;SDS011;12904;50.088;11.414;2023-07-13T05:08:01;3.00;;;1.80;;
24813;SDS011;12904;50.088;11.414;2023-07-13T05:10:27;3.35;;;1.55;;
24813;SDS011;12904;50.088;11.414;2023-07-13T05:12:53;2.45;;;1.67;;
24813;SDS011;12904;50.088;11.414;2023-07-13T05:15:20;3.85;;;1.50;;
24813;SDS011;12904;50.088;11.414;2023-07-13T05:17:47;3.88;;;1.85;;
24813;SDS011;12904;50.088;11.414;2023-07-13T05:20:14;2.35;;;1.45;;
24813;SDS011;12904;50.088;11.414;2023-07-13T05:22:40;2.05;;;1.40;;
24813;SDS011;12904;50.088;11.414;2023-07-13T05:25:07;2.20;;;1.50;;
24813;SDS011;12904;50.088;11.414;2023-07-13T05:27:33;3.95;;;1.52;;
24813;SDS011;12904;50.088;11.414;2023-07-13T05:29:59;4.32;;;1.48;;
24813;SDS011;12904;50.088;11.414;2023-07-13T05:32:25;1.77;;;1.50;;
24813;SDS011;12904;50.088;11.414;2023-07-13T05:34:51;2.78;;;1.50;;
24813;SDS011;12904;50.088;11.414;2023-07-13T05:37:17;4.38;;;1.10;;
24813;SDS011;12904;50.088;11.414;2023-07-13T05:39:43;6.75;;;1.25;;
24813;SDS011;12904;50.088;11.414;2023-07-13T05:42:09;3.03;;;1.30;;
24813;SDS011;12904;50.088;11.414;2023-07-13T05:44:34;2.00;;;1.40;;
24813;SDS011;12904;50.088;11.414;2023-07-13T05:47:00;1.40;;;1.20;;
24813;SDS011;12904;50.088;11.414;2023-07-13T05:49:25;1.92;;;1.20;;
24813;SDS011;12904;50.088;11.414;2023-07-13T05:51:51;2.92;;;1.13;;
24813;SDS011;12904;50.088;11.414;2023-07-13T05:54:17;2.33;;;1.38;;
24813;SDS011;12904;50.088;11.414;2023-07-13T05:56:42;1.38;;;1.00;;
24813;SDS011;12904;50.088;11.414;2023-07-13T05:59:08;2.58;;;1.00;;
24813;SDS011;12904;50.088;11.414;2023-07-13T06:01:34;1.48;;;0.90;;
24813;SDS011;12904;50.088;11.414;2023-07-13T06:03:59;4.30;;;0.98;;
24813;SDS011;12904;50.088;11.414;2023-07-13T06:06:25;1.55;;;0.90;;
24813;SDS011;12904;50.088;11.414;2023-07-13T06:08:50;2.80;;;1.35;;
24813;SDS011;12904;50.088;11.414;2023-07-13T06:11:21;1.98;;;1.10;;
24813;SDS011;12904;50.088;11.414;2023-07-13T06:13:48;5.70;;;1.10;;
24813;SDS011;12904;50.088;11.414;2023-07-13T06:16:14;3.35;;;1.30;;
24813;SDS011;12904;50.088;11.414;2023-07-13T06:18:41;2.58;;;1.05;;
24813;SDS011;12904;50.088;11.414;2023-07-13T06:21:13;8.27;;;1.08;;
24813;SDS011;12904;50.088;11.414;2023-07-13T06:23:44;3.30;;;1.15;;
24813;SDS011;12904;50.088;11.414;2023-07-13T06:26:12;4.80;;;1.10;;
24813;SDS011;12904;50.088;11.414;2023-07-13T06:28:38;2.05;;;0.85;;
24813;SDS011;12904;50.088;11.414;2023-07-13T06:31:05;2.17;;;1.20;;
24813;SDS011;12904;50.088;11.414;2023-07-13T06:33:32;7.95;;;1.17;;
24813;SDS011;12904;50.088;11.414;2023-07-13T06:35:58;1.88;;;1.05;;
24813;SDS011;12904;50.088;11.414;2023-07-13T06:38:24;2.63;;;1.23;;
24813;SDS011;12904;50.088;11.414;2023-07-13T06:40:49;1.90;;;0.90;;
24813;SDS011;12904;50.088;11.414;2023-07-13T06:43:15;2.35;;;1.10;;
24813;SDS011;12904;50.088;11.414;2023-07-13T06:45:43;2.67;;;0.90;;
24813;SDS011;12904;50.088;11.414;2023-07-13T06:48:14;2.13;;;1.10;;
24813;SDS011;12904;50.088;11.414;2023-07-13T06:50:41;1.92;;;1.00;;
24813;SDS011;12904;50.088;11.414;2023-07-13T06:53:07;3.72;;;1.10;;
24813;SDS011;12904;50.088;11.414;2023-07-13T06:55:33;2.10;;;1.05;;
24813;SDS011;12904;50.088;11.414;2023-07-13T06:57:59;3.92;;;1.10;;
24813;SDS011;12904;50.088;11.414;2023-07-13T07:00:24;3.00;;;0.80;;
24813;SDS011;12904;50.088;11.414;2023-07-13T07:02:50;4.68;;;1.15;;
24813;SDS011;12904;50.088;11.414;2023-07-13T07:05:16;6.63;;;1.20;;
24813;SDS011;12904;50.088;11.414;2023-07-13T07:07:41;2.25;;;1.10;;
24813;SDS011;12904;50.088;11.414;2023-07-13T07:10:07;2.22;;;1.02;;
24813;SDS011;12904;50.088;11.414;2023-07-13T07:12:33;1.63;;;0.90;;
24813;SDS011;12904;50.088;11.414;2023-07-13T07:14:59;2.08;;;1.10;;
24813;SDS011;12904;50.088;11.414;2023-07-13T07:17:25;3.30;;;1.10;;
24813;SDS011;12904;50.088;11.414;2023-07-13T07:19:51;7.55;;;1.20;;
24813;SDS011;12904;50.088;11.414;2023-07-13T07:22:19;2.05;;;1.10;;
24813;SDS011;12904;50.088;11.414;2023-07-13T07:24:45;2.38;;;0.93;;
24813;SDS011;12904;50.088;11.414;2023-07-13T07:27:11;3.42;;;1.20;;
24813;SDS011;12904;50.088;11.414;2023-07-13T07:29:36;5.80;;;1.27;;
24813;SDS011;12904;50.088;11.414;2023-07-13T07:32:02;3.25;;;0.85;;
24813;SDS011;12904;50.088;11.414;2023-07-13T07:34:28;2.20;;;1.05;;
24813;SDS011;12904;50.088;11.414;2023-07-13T07:36:54;3.25;;;1.00;;
24813;SDS011;12904;50.088;11.414;2023-07-13T07:39:21;2.25;;;1.10;;
24813;SDS011;12904;50.088;11.414;2023-07-13T07:41:47;3.03;;;1.10;;
24813;SDS011;12904;50.088;11.414;2023-07-13T07:44:12;3.75;;;1.00;;
24813;SDS011;12904;50.088;11.414;2023-07-13T07:46:38;2.05;;;0.90;;
24813;SDS011;12904;50.088;11.414;2023-07-13T07:49:06;4.07;;;1.00;;
24813;SDS011;12904;50.088;11.414;2023-07-13T07:51:31;2.42;;;1.00;;
24813;SDS011;12904;50.088;11.414;2023-07-13T07:53:57;3.92;;;1.00;;
24813;SDS011;12904;50.088;11.414;2023-07-13T07:56:22;3.05;;;1.02;;
24813;SDS011;12904;50.088;11.414;2023-07-13T07:58:48;1.77;;;0.90;;
24813;SDS011;12904;50.088;11.414;2023-07-13T08:01:14;7.22;;;1.35;;
24813;SDS011;12904;50.088;11.414;2023-07-13T08:03:41;5.55;;;1.33;;
24813;SDS011;12904;50.088;11.414;2023-07-13T08:06:06;2.95;;;1.02;;
24813;SDS011;12904;50.088;11.414;2023-07-13T08:08:32;9.43;;;1.50;;
24813;SDS011;12904;50.088;11.414;2023-07-13T08:10:57;1.95;;;0.95;;
24813;SDS011;12904;50.088;11.414;2023-07-13T08:13:28;4.15;;;1.27;;
24813;SDS011;12904;50.088;11.414;2023-07-13T08:15:53;2.55;;;1.20;;
24813;SDS011;12904;50.088;11.414;2023-07-13T08:18:19;2.88;;;0.90;;
24813;SDS011;12904;50.088;11.414;2023-07-13T08:20:45;4.00;;;1.10;;
24813;SDS011;12904;50.088;11.414;2023-07-13T08:23:10;3.38;;;1.00;;
24813;SDS011;12904;50.088;11.414;2023-07-13T08:25:36;1.83;;;1.00;;
24813;SDS011;12904;50.088;11.414;2023-07-13T08:28:02;2.17;;;1.02;;
24813;SDS011;12904;50.088;11.414;2023-07-13T08:30:29;3.40;;;1.40;;
24813;SDS011;12904;50.088;11.414;2023-07-13T08:32:54;3.60;;;1.08;;
24813;SDS011;12904;50.088;11.414;2023-07-13T08:35:20;3.50;;;1.30;;
24813;SDS011;12904;50.088;11.414;2023-07-13T08:37:46;3.55;;;1.48;;
24813;SDS011;12904;50.088;11.414;2023-07-13T08:40:12;2.95;;;0.90;;
24813;SDS011;12904;50.088;11.414;2023-07-13T08:42:51;5.85;;;1.30;;
24813;SDS011;12904;50.088;11.414;2023-07-13T08:45:22;3.75;;;0.93;;
24813;SDS011;12904;50.088;11.414;2023-07-13T08:47:51;4.22;;;1.20;;
24813;SDS011;12904;50.088;11.414;2023-07-13T08:50:35;2.13;;;1.13;;
24813;SDS011;12904;50.088;11.414;2023-07-13T08:53:19;1.75;;;1.00;;
24813;SDS011;12904;50.088;11.414;2023-07-13T08:55:48;1.73;;;0.90;;
24813;SDS011;12904;50.088;11.414;2023-07-13T08:58:22;2.88;;;1.05;;
24813;SDS011;12904;50.088;11.414;2023-07-13T09:03:40;2.95;;;0.95;;
24813;SDS011;12904;50.088;11.414;2023-07-13T09:06:29;1.65;;;0.90;;
24813;SDS011;12904;50.088;11.414;2023-07-13T09:09:02;1.33;;;0.80;;
24813;SDS011;12904;50.088;11.414;2023-07-13T09:11:46;1.95;;;0.90;;
24813;SDS011;12904;50.088;11.414;2023-07-13T09:14:42;1.55;;;0.93;;
24813;SDS011;12904;50.088;11.414;2023-07-13T09:17:14;2.00;;;1.02;;
24813;SDS011;12904;50.088;11.414;2023-07-13T09:19:43;3.17;;;0.88;;
24813;SDS011;12904;50.088;11.414;2023-07-13T09:22:15;1.42;;;0.73;;
24813;SDS011;12904;50.088;11.414;2023-07-13T09:27:47;1.90;;;0.70;;
24813;SDS011;12904;50.088;11.414;2023-07-13T09:32:39;3.65;;;0.80;;
24813;SDS011;12904;50.088;11.414;2023-07-13T09:35:11;2.42;;;0.80;;
24813;SDS011;12904;50.088;11.414;2023-07-13T09:37:38;1.13;;;0.70;;
24813;SDS011;12904;50.088;11.414;2023-07-13T09:40:08;2.15;;;0.80;;
24813;SDS011;12904;50.088;11.414;2023-07-13T09:42:43;1.13;;;0.80;;
24813;SDS011;12904;50.088;11.414;2023-07-13T09:45:09;0.75;;;0.68;;
24813;SDS011;12904;50.088;11.414;2023-07-13T09:47:38;1.23;;;0.77;;
24813;SDS011;12904;50.088;11.414;2023-07-13T09:50:09;1.20;;;0.75;;
24813;SDS011;12904;50.088;11.414;2023-07-13T09:57:55;1.35;;;0.75;;
24813;SDS011;12904;50.088;11.414;2023-07-13T10:00:25;1.05;;;0.70;;
24813;SDS011;12904;50.088;11.414;2023-07-13T10:06:01;2.75;;;0.60;;
24813;SDS011;12904;50.088;11.414;2023-07-13T10:08:37;1.08;;;0.60;;
24813;SDS011;12904;50.088;11.414;2023-07-13T10:11:11;6.63;;;0.70;;
24813;SDS011;12904;50.088;11.414;2023-07-13T10:13:43;4.72;;;0.90;;
24813;SDS011;12904;50.088;11.414;2023-07-13T10:16:13;5.35;;;0.98;;
24813;SDS011;12904;50.088;11.414;2023-07-13T10:21:19;1.88;;;0.70;;
24813;SDS011;12904;50.088;11.414;2023-07-13T10:23:54;2.72;;;0.90;;
24813;SDS011;12904;50.088;11.414;2023-07-13T10:26:29;1.40;;;0.60;;
24813;SDS011;12904;50.088;11.414;2023-07-13T10:28:59;1.55;;;0.52;;
24813;SDS011;12904;50.088;11.414;2023-07-13T10:31:29;0.70;;;0.50;;
24813;SDS011;12904;50.088;11.414;2023-07-13T10:33:55;1.70;;;0.60;;
24813;SDS011;12904;50.088;11.414;2023-07-13T10:36:34;1.50;;;0.50;;
24813;SDS011;12904;50.088;11.414;2023-07-13T10:39:21;1.42;;;0.60;;
24813;SDS011;12904;50.088;11.414;2023-07-13T10:41:53;0.70;;;0.45;;
24813;SDS011;12904;50.088;11.414;2023-07-13T10:44:23;0.75;;;0.40;;
24813;SDS011;12904;50.088;11.414;2023-07-13T10:46:57;1.88;;;0.80;;
24813;SDS011;12904;50.088;11.414;2023-07-13T10:49:26;3.35;;;0.50;;
24813;SDS011;12904;50.088;11.414;2023-07-13T10:51:55;2.30;;;0.50;;
24813;SDS011;12904;50.088;11.414;2023-07-13T10:54:26;1.17;;;0.50;;
24813;SDS011;12904;50.088;11.414;2023-07-13T11:02:42;1.17;;;0.50;;
24813;SDS011;12904;50.088;11.414;2023-07-13T11:05:25;2.53;;;0.60;;
24813;SDS011;12904;50.088;11.414;2023-07-13T11:07:54;0.77;;;0.60;;
24813;SDS011;12904;50.088;11.414;2023-07-13T11:10:46;1.20;;;0.50;;
24813;SDS011;12904;50.088;11.414;2023-07-13T11:13:39;1.27;;;0.50;;
24813;SDS011;12904;50.088;11.414;2023-07-13T11:18:52;3.28;;;0.50;;
24813;SDS011;12904;50.088;11.414;2023-07-13T11:21:41;1.48;;;0.50;;
24813;SDS011;12904;50.088;11.414;2023-07-13T11:24:58;1.77;;;0.73;;
24813;SDS011;12904;50.088;11.414;2023-07-13T11:30:09;0.95;;;0.40;;
24813;SDS011;12904;50.088;11.414;2023-07-13T11:32:49;0.55;;;0.50;;
24813;SDS011;12904;50.088;11.414;2023-07-13T11:35:39;1.42;;;0.60;;
24813;SDS011;12904;50.088;11.414;2023-07-13T11:38:17;2.33;;;0.55;;
24813;SDS011;12904;50.088;11.414;2023-07-13T11:40:46;1.70;;;0.55;;
24813;SDS011;12904;50.088;11.414;2023-07-13T11:43:14;1.27;;;0.60;;
24813;SDS011;12904;50.088;11.414;2023-07-13T11:45:41;2.05;;;0.60;;
24813;SDS011;12904;50.088;11.414;2023-07-13T11:48:21;1.30;;;0.57;;
24813;SDS011;12904;50.088;11.414;2023-07-13T11:51:01;0.57;;;0.40;;
24813;SDS011;12904;50.088;11.414;2023-07-13T11:53:32;2.20;;;0.60;;
24813;SDS011;12904;50.088;11.414;2023-07-13T11:56:03;1.13;;;0.47;;
24813;SDS011;12904;50.088;11.414;2023-07-13T11:58:29;2.10;;;0.63;;
24813;SDS011;12904;50.088;11.414;2023-07-13T12:00:55;0.65;;;0.50;;
24813;SDS011;12904;50.088;11.414;2023-07-13T12:03:23;0.85;;;0.50;;
24813;SDS011;12904;50.088;11.414;2023-07-13T12:05:57;0.65;;;0.40;;
24813;SDS011;12904;50.088;11.414;2023-07-13T12:08:26;1.58;;;0.55;;
24813;SDS011;12904;50.088;11.414;2023-07-13T12:11:04;2.35;;;0.50;;
24813;SDS011;12904;50.088;11.414;2023-07-13T12:13:38;0.93;;;0.50;;
24813;SDS011;12904;50.088;11.414;2023-07-13T12:16:10;1.67;;;0.50;;
24813;SDS011;12904;50.088;11.414;2023-07-13T12:18:50;0.45;;;0.40;;
24813;SDS011;12904;50.088;11.414;2023-07-13T12:21:18;1.27;;;0.43;;
24813;SDS011;12904;50.088;11.414;2023-07-13T12:23:47;0.95;;;0.47;;
24813;SDS011;12904;50.088;11.414;2023-07-13T12:26:14;3.88;;;0.60;;
24813;SDS011;12904;50.088;11.414;2023-07-13T12:28:49;1.25;;;0.50;;
24813;SDS011;12904;50.088;11.414;2023-07-13T12:34:10;0.88;;;0.45;;
24813;SDS011;12904;50.088;11.414;2023-07-13T12:37:02;0.90;;;0.50;;
24813;SDS011;12904;50.088;11.414;2023-07-13T12:39:37;1.00;;;0.60;;
24813;SDS011;12904;50.088;11.414;2023-07-13T12:44:52;1.10;;;0.70;;
24813;SDS011;12904;50.088;11.414;2023-07-13T12:47:27;0.88;;;0.50;;
24813;SDS011;12904;50.088;11.414;2023-07-13T12:49:55;2.05;;;0.50;;
24813;SDS011;12904;50.088;11.414;2023-07-13T12:52:30;2.65;;;0.50;;
24813;SDS011;12904;50.088;11.414;2023-07-13T12:57:37;0.88;;;0.60;;
24813;SDS011;12904;50.088;11.414;2023-07-13T13:00:09;0.98;;;0.50;;
24813;SDS011;12904;50.088;11.414;2023-07-13T13:02:44;0.77;;;0.55;;
24813;SDS011;12904;50.088;11.414;2023-07-13T13:05:12;3.80;;;0.90;;
24813;SDS011;12904;50.088;11.414;2023-07-13T13:07:39;2.75;;;0.85;;
24813;SDS011;12904;50.088;11.414;2023-07-13T13:10:11;1.50;;;0.70;;
24813;SDS011;12904;50.088;11.414;2023-07-13T13:12:37;3.13;;;0.82;;
24813;SDS011;12904;50.088;11.414;2023-07-13T13:15:03;1.75;;;0.68;;
24813;SDS011;12904;50.088;11.414;2023-07-13T13:17:32;1.77;;;0.70;;
24813;SDS011;12904;50.088;11.414;2023-07-13T13:19:59;3.45;;;0.80;;
24813;SDS011;12904;50.088;11.414;2023-07-13T13:22:25;1.05;;;0.60;;
24813;SDS011;12904;50.088;11.414;2023-07-13T13:24:50;1.80;;;0.70;;
24813;SDS011;12904;50.088;11.414;2023-07-13T13:27:25;0.93;;;0.75;;
24813;SDS011;12904;50.088;11.414;2023-07-13T13:29:51;1.27;;;0.50;;
24813;SDS011;12904;50.088;11.414;2023-07-13T13:32:17;1.90;;;0.68;;
24813;SDS011;12904;50.088;11.414;2023-07-13T13:34:44;1.08;;;0.57;;
24813;SDS011;12904;50.088;11.414;2023-07-13T13:37:22;2.00;;;0.60;;
24813;SDS011;12904;50.088;11.414;2023-07-13T13:39:50;1.85;;;0.65;;
24813;SDS011;12904;50.088;11.414;2023-07-13T13:42:17;2.17;;;0.80;;
24813;SDS011;12904;50.088;11.414;2023-07-13T13:44:42;2.38;;;0.60;;
24813;SDS011;12904;50.088;11.414;2023-07-13T13:47:19;6.65;;;0.63;;
24813;SDS011;12904;50.088;11.414;2023-07-13T13:49:46;2.10;;;0.77;;
24813;SDS011;12904;50.088;11.414;2023-07-13T13:52:12;1.73;;;0.80;;
24813;SDS011;12904;50.088;11.414;2023-07-13T13:54:38;0.95;;;0.63;;
24813;SDS011;12904;50.088;11.414;2023-07-13T13:57:03;1.38;;;0.60;;
24813;SDS011;12904;50.088;11.414;2023-07-13T13:59:29;2.13;;;0.90;;
24813;SDS011;12904;50.088;11.414;2023-07-13T14:01:57;2.25;;;0.63;;
24813;SDS011;12904;50.088;11.414;2023-07-13T14:04:25;2.00;;;0.70;;
24813;SDS011;12904;50.088;11.414;2023-07-13T14:06:50;2.25;;;0.70;;
24813;SDS011;12904;50.088;11.414;2023-07-13T14:09:17;3.72;;;0.85;;
24813;SDS011;12904;50.088;11.414;2023-07-13T14:11:44;3.35;;;0.90;;
24813;SDS011;12904;50.088;11.414;2023-07-13T14:14:21;2.38;;;0.60;;
24813;SDS011;12904;50.088;11.414;2023-07-13T14:16:48;3.15;;;0.88;;
24813;SDS011;12904;50.088;11.414;2023-07-13T14:19:18;2.53;;;0.80;;
24813;SDS011;12904;50.088;11.414;2023-07-13T14:21:44;3.55;;;0.80;;
24813;SDS011;12904;50.088;11.414;2023-07-13T14:24:12;3.65;;;0.80;;
24813;SDS011;12904;50.088;11.414;2023-07-13T14:26:38;2.72;;;0.82;;
24813;SDS011;12904;50.088;11.414;2023-07-13T14:29:16;2.97;;;1.00;;
24813;SDS011;12904;50.088;11.414;2023-07-13T14:31:44;1.73;;;0.77;;
24813;SDS011;12904;50.088;11.414;2023-07-13T14:34:10;2.53;;;0.80;;
24813;SDS011;12904;50.088;11.414;2023-07-13T14:36:41;3.65;;;1.10;;
24813;SDS011;12904;50.088;11.414;2023-07-13T14:39:14;1.98;;;0.98;;
24813;SDS011;12904;50.088;11.414;2023-07-13T14:41:50;1.08;;;0.68;;
24813;SDS011;12904;50.088;11.414;2023-07-13T14:46:45;2.70;;;1.17;;
24813;SDS011;12904;50.088;11.414;2023-07-13T14:52:01;4.45;;;0.80;;
24813;SDS011;12904;50.088;11.414;2023-07-13T14:56:56;1.80;;;0.75;;
24813;SDS011;12904;50.088;11.414;2023-07-13T14:59:22;3.05;;;1.33;;
24813;SDS011;12904;50.088;11.414;2023-07-13T15:01:49;5.88;;;1.05;;
24813;SDS011;12904;50.088;11.414;2023-07-13T15:04:15;4.05;;;0.90;;
24813;SDS011;12904;50.088;11.414;2023-07-13T15:06:55;2.53;;;0.95;;
24813;SDS011;12904;50.088;11.414;2023-07-13T15:09:24;3.38;;;0.60;;
24813;SDS011;12904;50.088;11.414;2023-07-13T15:11:51;2.03;;;0.70;;
24813;SDS011;12904;50.088;11.414;2023-07-13T15:14:18;1.65;;;0.80;;
24813;SDS011;12904;50.088;11.414;2023-07-13T15:16:44;1.33;;;0.65;;
24813;SDS011;12904;50.088;11.414;2023-07-13T15:19:11;1.40;;;0.77;;
24813;SDS011;12904;50.088;11.414;2023-07-13T15:21:37;1.60;;;0.75;;
24813;SDS011;12904;50.088;11.414;2023-07-13T15:24:03;1.42;;;0.80;;
24813;SDS011;12904;50.088;11.414;2023-07-13T15:26:30;2.50;;;0.68;;
24813;SDS011;12904;50.088;11.414;2023-07-13T15:28:56;1.42;;;0.80;;
24813;SDS011;12904;50.088;11.414;2023-07-13T15:31:23;3.00;;;0.80;;
24813;SDS011;12904;50.088;11.414;2023-07-13T15:33:52;1.20;;;0.90;;
24813;SDS011;12904;50.088;11.414;2023-07-13T15:36:19;3.50;;;0.70;;